createdAt,value
2016-05-11T00:00:27.950Z,0
2016-05-11T00:01:27.452Z,0
2016-05-11T00:02:27.658Z,0
2016-05-11T00:03:28.536Z,0
2016-05-11T00:04:27.631Z,0
2016-05-11T00:05:27.650Z,0
2016-05-11T00:06:27.950Z,0
2016-05-11T00:07:27.921Z,0
2016-05-11T00:08:27.753Z,0
2016-05-11T00:09:27.974Z,0
2016-05-11T00:10:27.866Z,0
2016-05-11T00:11:28.136Z,0
2016-05-11T00:12:28.091Z,0
2016-05-11T00:13:28.140Z,0
2016-05-11T00:14:28.206Z,0
2016-05-11T00:15:28.365Z,0
2016-05-11T00:16:28.258Z,0
2016-05-11T00:17:28.338Z,0
2016-05-11T00:18:28.248Z,0
2016-05-11T00:19:28.266Z,0
2016-05-11T00:20:28.253Z,0
2016-05-11T00:21:28.224Z,0
2016-05-11T00:22:28.399Z,0
2016-05-11T00:23:28.386Z,0
2016-05-11T00:24:28.124Z,0
2016-05-11T00:25:28.548Z,0
2016-05-11T00:26:28.723Z,0
2016-05-11T00:27:28.569Z,0
2016-05-11T00:28:28.806Z,0
2016-05-11T00:29:28.653Z,0
2016-05-11T00:30:28.826Z,0
2016-05-11T00:31:28.908Z,0
2016-05-11T00:32:29.051Z,0
2016-05-11T00:33:28.664Z,0
2016-05-11T00:34:29.009Z,0
2016-05-11T00:35:29.075Z,0
2016-05-11T00:36:29.093Z,0
2016-05-11T00:37:28.939Z,0
2016-05-11T00:38:29.192Z,0
2016-05-11T00:39:29.273Z,0
2016-05-11T00:40:29.260Z,0
2016-05-11T00:41:29.153Z,0
2016-05-11T00:42:29.327Z,0
2016-05-11T00:43:29.300Z,0
2016-05-11T00:44:29.333Z,0
2016-05-11T00:45:30.336Z,0
2016-05-11T00:46:29.370Z,0
2016-05-11T00:47:29.607Z,0
2016-05-11T00:48:29.594Z,0
2016-05-11T00:49:29.644Z,0
2016-05-11T00:50:29.693Z,0
2016-05-11T00:51:29.446Z,0
2016-05-11T00:52:29.776Z,0
2016-05-11T00:53:29.795Z,0
2016-05-11T00:54:29.923Z,0
2016-05-11T00:55:29.738Z,0
2016-05-11T00:56:29.756Z,0
2016-05-11T00:57:29.821Z,0
2016-05-11T00:58:30.074Z,0
2016-05-11T00:59:30.061Z,0
2016-05-11T01:00:29.814Z,0
2016-05-11T01:01:30.144Z,0
2016-05-11T01:02:30.037Z,0
2016-05-11T01:03:30.212Z,0
2016-05-11T01:04:30.262Z,0
2016-05-11T01:05:30.312Z,0
2016-05-11T01:06:30.345Z,0
2016-05-11T01:07:30.411Z,0
2016-05-11T01:08:30.272Z,0
2016-05-11T01:09:30.510Z,0
2016-05-11T01:10:30.513Z,0
2016-05-11T01:11:30.531Z,0
2016-05-11T01:12:30.628Z,0
2016-05-11T01:13:30.708Z,0
2016-05-11T01:14:30.508Z,0
2016-05-11T01:15:30.572Z,0
2016-05-11T01:16:30.780Z,0
2016-05-11T01:17:30.827Z,0
2016-05-11T01:18:30.846Z,0
2016-05-11T01:19:31.490Z,0
2016-05-11T01:20:30.993Z,0
2016-05-11T01:21:30.980Z,0
2016-05-11T01:22:31.013Z,0
2016-05-11T01:23:30.860Z,0
2016-05-11T01:24:30.925Z,0
2016-05-11T01:25:31.132Z,0
2016-05-11T01:26:30.899Z,0
2016-05-11T01:27:31.246Z,0
2016-05-11T01:28:31.171Z,0
2016-05-11T01:29:31.126Z,0
2016-05-11T01:30:31.222Z,0
2016-05-11T01:31:31.084Z,0
2016-05-11T01:32:31.276Z,0
2016-05-11T01:33:31.450Z,0
2016-05-11T01:34:31.406Z,0
2016-05-11T01:35:31.580Z,0
2016-05-11T01:36:31.426Z,0
2016-05-11T01:37:31.663Z,0
2016-05-11T01:38:31.542Z,0
2016-05-11T01:39:31.575Z,0
2016-05-11T01:40:31.608Z,0
2016-05-11T01:41:31.690Z,0
2016-05-11T01:42:31.895Z,0
2016-05-11T01:43:31.711Z,0
2016-05-11T01:44:31.761Z,0
2016-05-11T01:45:31.685Z,0
2016-05-11T01:46:32.030Z,0
2016-05-11T01:47:32.033Z,0
2016-05-11T01:48:31.928Z,0
2016-05-11T01:49:32.164Z,0
2016-05-11T01:50:32.167Z,0
2016-05-11T01:51:32.279Z,0
2016-05-11T01:52:32.094Z,0
2016-05-11T01:53:32.332Z,0
2016-05-11T01:54:32.318Z,0
2016-05-11T01:55:32.055Z,0
2016-05-11T01:56:32.449Z,0
2016-05-11T01:57:32.483Z,0
2016-05-11T01:58:32.501Z,0
2016-05-11T01:59:32.535Z,0
2016-05-11T02:00:32.912Z,0
2016-05-11T02:01:32.603Z,0
2016-05-11T02:02:32.495Z,0
2016-05-11T02:03:32.593Z,0
2016-05-11T02:04:32.643Z,0
2016-05-11T02:05:32.786Z,0
2016-05-11T02:06:32.694Z,0
2016-05-11T02:07:32.712Z,0
2016-05-11T02:08:32.903Z,0
2016-05-11T02:09:32.780Z,0
2016-05-11T02:10:33.017Z,0
2016-05-11T02:11:33.052Z,0
2016-05-11T02:12:33.070Z,0
2016-05-11T02:13:33.103Z,0
2016-05-11T02:14:33.185Z,0
2016-05-11T02:15:33.734Z,0
2016-05-11T02:16:33.253Z,0
2016-05-11T02:17:33.114Z,0
2016-05-11T02:18:33.211Z,0
2016-05-11T02:19:33.433Z,0
2016-05-11T02:20:33.388Z,0
2016-05-11T02:21:33.454Z,0
2016-05-11T02:22:33.503Z,0
2016-05-11T02:23:33.537Z,0
2016-05-11T02:24:33.415Z,0
2016-05-11T02:25:33.651Z,0
2016-05-11T02:26:33.670Z,0
2016-05-11T02:27:33.688Z,0
2016-05-11T02:28:33.848Z,0
2016-05-11T02:29:33.771Z,0
2016-05-11T02:30:34.743Z,0
2016-05-11T02:31:33.856Z,0
2016-05-11T02:32:33.765Z,0
2016-05-11T02:33:33.814Z,0
2016-05-11T02:34:33.832Z,0
2016-05-11T02:35:34.022Z,0
2016-05-11T02:36:33.962Z,0
2016-05-11T02:37:34.043Z,0
2016-05-11T02:38:34.140Z,0
2016-05-11T02:39:34.190Z,0
2016-05-11T02:40:34.301Z,0
2016-05-11T02:41:34.164Z,0
2016-05-11T02:42:34.135Z,0
2016-05-11T02:43:34.388Z,0
2016-05-11T02:44:34.390Z,0
2016-05-11T02:45:34.144Z,0
2016-05-11T02:46:34.614Z,0
2016-05-11T02:47:34.492Z,0
2016-05-11T02:48:34.527Z,0
2016-05-11T02:49:34.575Z,0
2016-05-11T02:50:34.657Z,0
2016-05-11T02:51:34.722Z,0
2016-05-11T02:52:34.693Z,0
2016-05-11T02:53:34.805Z,0
2016-05-11T02:54:34.980Z,0
2016-05-11T02:55:34.795Z,0
2016-05-11T02:56:34.938Z,0
2016-05-11T02:57:34.956Z,0
2016-05-11T02:58:34.975Z,0
2016-05-11T02:59:34.978Z,0
2016-05-11T03:00:35.137Z,0
2016-05-11T03:01:35.139Z,0
2016-05-11T03:02:35.142Z,0
2016-05-11T03:03:35.159Z,0
2016-05-11T03:04:34.912Z,0
2016-05-11T03:05:34.963Z,0
2016-05-11T03:06:35.340Z,0
2016-05-11T03:07:35.437Z,0
2016-05-11T03:08:35.080Z,0
2016-05-11T03:09:35.254Z,0
2016-05-11T03:10:35.272Z,0
2016-05-11T03:11:35.525Z,0
2016-05-11T03:12:35.637Z,0
2016-05-11T03:13:35.703Z,0
2016-05-11T03:14:35.642Z,0
2016-05-11T03:15:35.833Z,0
2016-05-11T03:16:35.680Z,5
2016-05-11T03:17:35.558Z,5
2016-05-11T03:18:35.607Z,5
2016-05-11T03:19:35.735Z,5
2016-05-11T03:20:35.862Z,5
2016-05-11T03:21:35.927Z,5
2016-05-11T03:22:36.071Z,5
2016-05-11T03:23:36.010Z,5
2016-05-11T03:24:35.874Z,10
2016-05-11T03:25:36.047Z,10
2016-05-11T03:26:35.941Z,10
2016-05-11T03:27:36.147Z,10
2016-05-11T03:28:35.868Z,10
2016-05-11T03:29:36.214Z,10
2016-05-11T03:30:36.552Z,15
2016-05-11T03:31:36.172Z,15
2016-05-11T03:32:36.401Z,15
2016-05-11T03:33:36.523Z,15
2016-05-11T03:34:36.440Z,15
2016-05-11T03:35:36.493Z,20
2016-05-11T03:36:36.698Z,20
2016-05-11T03:37:36.621Z,20
2016-05-11T03:38:36.825Z,20
2016-05-11T03:39:36.858Z,25
2016-05-11T03:40:36.951Z,25
2016-05-11T03:41:37.022Z,25
2016-05-11T03:42:37.091Z,25
2016-05-11T03:43:37.162Z,30
2016-05-11T03:44:37.170Z,30
2016-05-11T03:45:37.364Z,30
2016-05-11T03:46:37.119Z,30
2016-05-11T03:47:37.279Z,30
2016-05-11T03:48:37.158Z,35
2016-05-11T03:49:37.335Z,35
2016-05-11T03:50:37.387Z,35
2016-05-11T03:51:37.436Z,35
2016-05-11T03:52:37.221Z,40
2016-05-11T03:53:37.490Z,40
2016-05-11T03:54:37.524Z,40
2016-05-11T03:55:37.605Z,40
2016-05-11T03:56:37.436Z,45
2016-05-11T03:57:37.643Z,45
2016-05-11T03:58:37.771Z,45
2016-05-11T03:59:37.727Z,45
2016-05-11T04:00:37.403Z,50
2016-05-11T04:01:37.811Z,50
2016-05-11T04:02:37.376Z,50
2016-05-11T04:03:37.895Z,50
2016-05-11T04:04:37.928Z,55
2016-05-11T04:05:38.086Z,55
2016-05-11T04:06:37.949Z,55
2016-05-11T04:07:37.922Z,55
2016-05-11T04:08:38.095Z,60
2016-05-11T04:09:38.192Z,60
2016-05-11T04:10:38.210Z,60
2016-05-11T04:11:38.321Z,60
2016-05-11T04:12:38.152Z,60
2016-05-11T04:13:38.328Z,65
2016-05-11T04:14:38.205Z,65
2016-05-11T04:15:38.349Z,65
2016-05-11T04:16:38.523Z,65
2016-05-11T04:17:38.541Z,70
2016-05-11T04:18:38.482Z,70
2016-05-11T04:19:38.531Z,70
2016-05-11T04:20:38.268Z,70
2016-05-11T04:21:38.584Z,75
2016-05-11T04:22:39.320Z,75
2016-05-11T04:23:38.714Z,75
2016-05-11T04:24:38.638Z,75
2016-05-11T04:25:38.813Z,75
2016-05-11T04:26:38.973Z,80
2016-05-11T04:27:39.506Z,80
2016-05-11T04:28:38.899Z,80
2016-05-11T04:29:39.542Z,80
2016-05-11T04:30:41.342Z,80
2016-05-11T04:31:39.188Z,85
2016-05-11T04:32:38.973Z,85
2016-05-11T04:33:38.944Z,85
2016-05-11T04:34:39.039Z,85
2016-05-11T04:35:39.214Z,85
2016-05-11T04:36:39.061Z,90
2016-05-11T04:37:39.329Z,90
2016-05-11T04:38:39.317Z,90
2016-05-11T04:39:39.413Z,90
2016-05-11T04:40:39.228Z,90
2016-05-11T04:41:39.278Z,90
2016-05-11T04:42:39.702Z,95
2016-05-11T04:43:39.361Z,95
2016-05-11T04:44:39.536Z,95
2016-05-11T04:45:39.726Z,95
2016-05-11T04:46:39.776Z,95
2016-05-11T04:47:39.794Z,95
2016-05-11T04:48:39.796Z,100
2016-05-11T04:49:40.159Z,100
2016-05-11T04:50:40.208Z,100
2016-05-11T04:51:39.835Z,100
2016-05-11T04:52:39.979Z,100
2016-05-11T04:53:39.951Z,100
2016-05-11T04:54:40.062Z,100
2016-05-11T04:55:39.910Z,100
2016-05-11T04:56:40.036Z,100
2016-05-11T04:57:40.337Z,100
2016-05-11T04:58:40.511Z,100
2016-05-11T04:59:40.404Z,100
2016-05-11T05:00:40.531Z,105
2016-05-11T05:01:40.238Z,105
2016-05-11T05:02:40.397Z,105
2016-05-11T05:03:39.665Z,105
2016-05-11T05:04:42.590Z,105
2016-05-11T05:05:40.623Z,105
2016-05-11T05:06:40.876Z,105
2016-05-11T05:07:40.878Z,110
2016-05-11T05:08:42.038Z,110
2016-05-11T05:09:40.728Z,110
2016-05-11T05:10:40.762Z,110
2016-05-11T05:11:40.702Z,110
2016-05-11T05:12:41.986Z,110
2016-05-11T05:13:40.442Z,115
2016-05-11T05:14:40.960Z,110
2016-05-11T05:15:42.385Z,115
2016-05-11T05:16:40.841Z,115
2016-05-11T05:17:41.171Z,115
2016-05-11T05:18:41.237Z,115
2016-05-11T05:19:41.208Z,115
2016-05-11T05:20:41.226Z,115
2016-05-11T05:21:40.979Z,115
2016-05-11T05:22:41.529Z,115
2016-05-11T05:23:41.343Z,120
2016-05-11T05:24:41.394Z,120
2016-05-11T05:25:41.505Z,120
2016-05-11T05:26:41.743Z,120
2016-05-11T05:27:41.573Z,120
2016-05-11T05:28:42.560Z,120
2016-05-11T05:29:41.484Z,120
2016-05-11T05:30:42.754Z,120
2016-05-11T05:31:41.787Z,125
2016-05-11T05:32:41.931Z,125
2016-05-11T05:33:41.903Z,125
2016-05-11T05:34:42.889Z,125
2016-05-11T05:35:42.986Z,125
2016-05-11T05:36:42.175Z,125
2016-05-11T05:37:43.288Z,125
2016-05-11T05:38:44.087Z,125
2016-05-11T05:39:42.247Z,130
2016-05-11T05:40:42.030Z,130
2016-05-11T05:41:41.908Z,130
2016-05-11T05:42:43.505Z,135
2016-05-11T05:43:42.882Z,130
2016-05-11T05:44:43.478Z,130
2016-05-11T05:45:43.169Z,130
2016-05-11T05:46:43.515Z,130
2016-05-11T05:47:44.674Z,135
2016-05-11T05:48:44.036Z,135
2016-05-11T05:49:43.008Z,135
2016-05-11T05:50:43.510Z,135
2016-05-11T05:51:44.279Z,135
2016-05-11T05:52:42.328Z,135
2016-05-11T05:53:42.612Z,135
2016-05-11T05:54:42.834Z,135
2016-05-11T05:55:43.336Z,135
2016-05-11T05:56:42.448Z,140
2016-05-11T05:57:45.107Z,140
2016-05-11T05:58:43.562Z,140
2016-05-11T05:59:46.143Z,140
2016-05-11T06:00:47.271Z,140
2016-05-11T06:01:46.695Z,140
2016-05-11T06:02:46.934Z,140
2016-05-11T06:03:46.061Z,140
2016-05-11T06:04:46.611Z,140
2016-05-11T06:05:46.909Z,140
2016-05-11T06:06:47.444Z,145
2016-05-11T06:07:46.197Z,145
2016-05-11T06:08:48.058Z,145
2016-05-11T06:09:46.062Z,145
2016-05-11T06:10:45.752Z,145
2016-05-11T06:11:44.894Z,145
2016-05-11T06:12:45.914Z,145
2016-05-11T06:13:46.775Z,145
2016-05-11T06:14:47.622Z,145
2016-05-11T06:15:45.858Z,145
2016-05-11T06:16:47.158Z,145
2016-05-11T06:17:48.396Z,150
2016-05-11T06:18:46.069Z,150
2016-05-11T06:19:48.214Z,150
2016-05-11T06:20:48.153Z,150
2016-05-11T06:22:00.749Z,150
2016-05-11T06:22:49.300Z,150
2016-05-11T06:23:49.818Z,150
2016-05-11T06:24:50.070Z,150
2016-05-11T06:25:49.838Z,150
2016-05-11T06:26:51.279Z,150
2016-05-11T06:27:47.923Z,155
2016-05-11T06:28:47.847Z,155
2016-05-11T06:29:44.646Z,155
2016-05-11T06:30:44.946Z,155
2016-05-11T06:31:43.620Z,155
2016-05-11T06:32:44.015Z,155
2016-05-11T06:33:43.407Z,155
2016-05-11T06:34:44.613Z,155
2016-05-11T06:35:43.929Z,155
2016-05-11T06:36:45.181Z,160
2016-05-11T06:37:44.825Z,160
2016-05-11T06:38:45.186Z,160
2016-05-11T06:39:45.595Z,160
2016-05-11T06:40:45.286Z,160
2016-05-11T06:41:45.710Z,160
2016-05-11T06:42:45.166Z,160
2016-05-11T06:43:45.543Z,160
2016-05-11T06:44:45.327Z,160
2016-05-11T06:45:45.753Z,165
2016-05-11T06:46:45.489Z,160
2016-05-11T06:47:46.648Z,165
2016-05-11T06:48:45.291Z,165
2016-05-11T06:49:44.685Z,165
2016-05-11T06:50:44.547Z,165
2016-05-11T06:51:46.315Z,165
2016-05-11T06:52:45.068Z,165
2016-05-11T06:53:45.524Z,165
2016-05-11T06:54:45.573Z,165
2016-05-11T06:55:45.294Z,165
2016-05-11T06:56:45.219Z,165
2016-05-11T06:57:44.924Z,165
2016-05-11T06:58:45.177Z,170
2016-05-11T06:59:45.977Z,170
2016-05-11T07:00:45.683Z,170
2016-05-11T07:01:50.343Z,170
2016-05-11T07:02:45.375Z,170
2016-05-11T07:03:46.020Z,170
2016-05-11T07:04:45.429Z,170
2016-05-11T07:05:45.743Z,175
2016-05-11T07:06:46.137Z,175
2016-05-11T07:07:46.592Z,175
2016-05-11T07:08:46.939Z,175
2016-05-11T07:09:45.442Z,175
2016-05-11T07:10:45.553Z,175
2016-05-11T07:11:45.837Z,175
2016-05-11T07:12:45.511Z,175
2016-05-11T07:13:46.343Z,175
2016-05-11T07:14:45.986Z,175
2016-05-11T07:15:46.442Z,175
2016-05-11T07:16:45.975Z,175
2016-05-11T07:17:46.057Z,175
2016-05-11T07:18:45.763Z,175
2016-05-11T07:19:46.374Z,175
2016-05-11T07:20:46.924Z,175
2016-05-11T07:21:46.630Z,175
2016-05-11T07:22:46.007Z,175
2016-05-11T07:23:46.135Z,180
2016-05-11T07:24:47.279Z,180
2016-05-11T07:25:46.406Z,180
2016-05-11T07:26:46.347Z,180
2016-05-11T07:27:46.506Z,180
2016-05-11T07:28:47.274Z,180
2016-05-11T07:29:46.745Z,180
2016-05-11T07:30:47.357Z,180
2016-05-11T07:31:46.595Z,185
2016-05-11T07:32:46.706Z,185
2016-05-11T07:33:46.615Z,185
2016-05-11T07:34:46.603Z,185
2016-05-11T07:35:52.356Z,185
2016-05-11T07:36:53.733Z,185
2016-05-11T07:37:50.251Z,185
2016-05-11T07:38:52.489Z,185
2016-05-11T07:39:52.960Z,190
2016-05-11T07:40:52.900Z,190
2016-05-11T07:41:51.715Z,190
2016-05-11T07:42:52.859Z,190
2016-05-11T07:43:53.845Z,190
2016-05-11T07:44:54.223Z,190
2016-05-11T07:45:54.851Z,195
2016-05-11T07:46:51.667Z,195
2016-05-11T07:47:51.403Z,195
2016-05-11T07:48:51.562Z,195
2016-05-11T07:49:47.236Z,195
2016-05-11T07:50:47.192Z,200
2016-05-11T07:51:47.460Z,200
2016-05-11T07:52:47.166Z,200
2016-05-11T07:53:47.498Z,200
2016-05-11T07:54:47.578Z,200
2016-05-11T07:55:47.847Z,200
2016-05-11T07:56:47.458Z,205
2016-05-11T07:57:47.648Z,205
2016-05-11T07:58:47.324Z,205
2016-05-11T07:59:48.124Z,205
2016-05-11T08:00:50.251Z,205
2016-05-11T08:01:49.066Z,210
2016-05-11T08:02:48.021Z,210
2016-05-11T08:03:50.837Z,210
2016-05-11T08:04:51.449Z,210
2016-05-11T08:05:52.108Z,215
2016-05-11T08:06:51.814Z,215
2016-05-11T08:07:51.676Z,215
2016-05-11T08:08:51.772Z,220
2016-05-11T08:09:52.259Z,220
2016-05-11T08:10:51.418Z,220
2016-05-11T08:11:48.593Z,220
2016-05-11T08:12:48.423Z,225
2016-05-11T08:13:48.083Z,225
2016-05-11T08:14:48.414Z,225
2016-05-11T08:15:49.384Z,225
2016-05-11T08:16:48.622Z,230
2016-05-11T08:17:48.484Z,230
2016-05-11T08:18:50.346Z,230
2016-05-11T08:19:49.489Z,235
2016-05-11T08:20:48.414Z,235
2016-05-11T08:21:49.354Z,240
2016-05-11T08:22:48.747Z,240
2016-05-11T08:23:48.719Z,245
2016-05-11T08:24:48.753Z,230
2016-05-11T08:25:48.724Z,230
2016-05-11T08:26:48.805Z,230
2016-05-11T08:27:48.964Z,235
2016-05-11T08:28:48.888Z,245
2016-05-11T08:29:49.016Z,235
2016-05-11T08:30:48.894Z,235
2016-05-11T08:31:49.037Z,235
2016-05-11T08:32:49.118Z,235
2016-05-11T08:33:48.918Z,240
2016-05-11T08:34:49.139Z,240
2016-05-11T08:35:49.032Z,245
2016-05-11T08:36:51.754Z,245
2016-05-11T08:37:49.147Z,250
2016-05-11T08:38:50.025Z,250
2016-05-11T08:39:49.090Z,245
2016-05-11T08:40:51.062Z,250
2016-05-11T08:41:49.314Z,250
2016-05-11T08:42:49.551Z,250
2016-05-11T08:43:49.851Z,255
2016-05-11T08:44:49.556Z,255
2016-05-11T08:45:50.106Z,260
2016-05-11T08:46:49.687Z,255
2016-05-11T08:47:49.752Z,260
2016-05-11T08:48:49.740Z,265
2016-05-11T08:49:49.773Z,265
2016-05-11T08:50:49.822Z,265
2016-05-11T08:51:49.888Z,270
2016-05-11T08:52:50.266Z,270
2016-05-11T08:53:49.815Z,280
2016-05-11T08:54:50.021Z,275
2016-05-11T08:55:51.446Z,280
2016-05-11T08:56:50.105Z,285
2016-05-11T08:57:50.591Z,300
2016-05-11T08:58:51.032Z,300
2016-05-11T08:59:53.863Z,300
2016-05-11T09:00:51.959Z,305
2016-05-11T09:01:51.649Z,315
2016-05-11T09:02:52.777Z,310
2016-05-11T09:03:51.796Z,315
2016-05-11T09:04:50.454Z,320
2016-05-11T09:05:50.862Z,325
2016-05-11T09:06:51.054Z,320
2016-05-11T09:07:50.946Z,325
2016-05-11T09:08:51.855Z,325
2016-05-11T09:09:51.265Z,325
2016-05-11T09:10:51.157Z,330
2016-05-11T09:11:51.051Z,330
2016-05-11T09:12:50.710Z,335
2016-05-11T09:13:51.509Z,335
2016-05-11T09:14:51.575Z,340
2016-05-11T09:16:26.108Z,340
2016-05-11T09:16:50.845Z,340
2016-05-11T09:17:51.333Z,335
2016-05-11T09:18:51.444Z,335
2016-05-11T09:19:52.042Z,335
2016-05-11T09:20:51.138Z,335
2016-05-11T09:21:50.875Z,335
2016-05-11T09:22:51.269Z,335
2016-05-11T09:23:50.958Z,330
2016-05-11T09:24:51.024Z,330
2016-05-11T09:25:51.292Z,335
2016-05-11T09:26:51.810Z,340
2016-05-11T09:27:51.625Z,340
2016-05-11T09:28:52.191Z,340
2016-05-11T09:29:51.787Z,340
2016-05-11T09:30:52.086Z,340
2016-05-11T09:31:51.621Z,335
2016-05-11T09:32:52.591Z,335
2016-05-11T09:33:51.563Z,340
2016-05-11T09:34:51.676Z,345
2016-05-11T09:35:51.818Z,340
2016-05-11T09:36:52.306Z,345
2016-05-11T09:37:51.933Z,350
2016-05-11T09:38:51.765Z,350
2016-05-11T09:39:51.971Z,350
2016-05-11T09:40:52.067Z,350
2016-05-11T09:41:52.382Z,350
2016-05-11T09:42:52.540Z,350
2016-05-11T09:43:53.012Z,355
2016-05-11T09:44:51.936Z,355
2016-05-11T09:45:52.408Z,360
2016-05-11T09:46:52.270Z,360
2016-05-11T09:47:53.695Z,365
2016-05-11T09:48:52.088Z,365
2016-05-11T09:49:52.419Z,365
2016-05-11T09:50:52.328Z,365
2016-05-11T09:51:52.331Z,370
2016-05-11T09:52:52.270Z,370
2016-05-11T09:53:52.586Z,375
2016-05-11T09:54:52.604Z,380
2016-05-11T09:55:52.685Z,385
2016-05-11T09:56:52.750Z,390
2016-05-11T09:57:52.628Z,395
2016-05-11T09:58:52.630Z,400
2016-05-11T09:59:52.539Z,405
2016-05-11T10:00:52.276Z,405
2016-05-11T10:01:52.919Z,405
2016-05-11T10:02:53.126Z,410
2016-05-11T10:03:53.018Z,420
2016-05-11T10:04:52.757Z,425
2016-05-11T10:05:52.993Z,435
2016-05-11T10:06:52.824Z,435
2016-05-11T10:07:53.186Z,435
2016-05-11T10:08:54.470Z,440
2016-05-11T10:09:54.082Z,445
2016-05-11T10:10:53.413Z,450
2016-05-11T10:11:53.181Z,450
2016-05-11T10:12:53.621Z,450
2016-05-11T10:13:53.468Z,470
2016-05-11T10:14:53.361Z,665
2016-05-11T10:15:54.176Z,1330
2016-05-11T10:16:53.617Z,1955
2016-05-11T10:17:53.822Z,2040
2016-05-11T10:18:55.388Z,2000
2016-05-11T10:19:54.047Z,2045
2016-05-11T10:20:53.706Z,2095
2016-05-11T10:21:53.848Z,2150
2016-05-11T10:22:55.038Z,2210
2016-05-11T10:23:56.417Z,2215
2016-05-11T10:24:57.622Z,2260
2016-05-11T10:25:57.719Z,2305
2016-05-11T10:26:54.503Z,2345
2016-05-11T10:27:54.677Z,2430
2016-05-11T10:28:54.102Z,2540
2016-05-11T10:29:55.230Z,2660
2016-05-11T10:30:54.294Z,2745
2016-05-11T10:32:57.003Z,2915
2016-05-11T10:33:10.253Z,2925
2016-05-11T10:34:09.756Z,2955
2016-05-11T10:35:09.977Z,3105
2016-05-11T10:36:10.700Z,3105
2016-05-11T10:37:10.123Z,3165
2016-05-11T10:38:10.064Z,3180
2016-05-11T10:39:10.566Z,3200
2016-05-11T10:40:10.366Z,3200
2016-05-11T10:41:10.885Z,3215
2016-05-11T10:42:11.169Z,3140
2016-05-11T10:43:11.468Z,3060
2016-05-11T10:44:11.079Z,3065
2016-05-11T10:45:12.442Z,3000
2016-05-11T10:46:11.585Z,2955
2016-05-11T10:47:11.290Z,2955
2016-05-11T10:48:11.184Z,3025
2016-05-11T10:49:14.406Z,3030
2016-05-11T10:50:12.440Z,3075
2016-05-11T10:51:10.926Z,3020
2016-05-11T10:52:12.304Z,3130
2016-05-11T10:53:12.526Z,3140
2016-05-11T10:54:12.342Z,3230
2016-05-11T10:55:11.703Z,3250
2016-05-11T10:56:12.737Z,3220
2016-05-11T10:57:12.052Z,3255
2016-05-11T10:58:13.836Z,3260
2016-05-11T10:59:12.808Z,3295
2016-05-11T11:00:12.092Z,3305
2016-05-11T11:01:12.547Z,3315
2016-05-11T11:02:11.925Z,3330
2016-05-11T11:03:12.006Z,3355
2016-05-11T11:04:13.166Z,3470
2016-05-11T11:05:11.824Z,3860
2016-05-11T11:06:12.155Z,4095
2016-05-11T11:07:12.111Z,4105
2016-05-11T11:08:12.035Z,4040
2016-05-11T11:09:12.397Z,4040
2016-05-11T11:10:12.821Z,3995
2016-05-11T11:11:13.591Z,4090
2016-05-11T11:12:12.390Z,4160
2016-05-11T11:13:13.720Z,4275
2016-05-11T11:14:13.568Z,4140
2016-05-11T11:15:13.116Z,3995
2016-05-11T11:16:12.931Z,4035
2016-05-11T11:17:12.825Z,4130
2016-05-11T11:18:12.766Z,2715
2016-05-11T11:19:14.643Z,845
2016-05-11T11:20:14.301Z,4160
2016-05-11T11:21:12.743Z,4060
2016-05-11T11:22:16.089Z,4000
2016-05-11T11:23:12.935Z,3960
2016-05-11T11:24:14.281Z,3870
2016-05-11T11:25:15.378Z,3855
2016-05-11T11:26:16.318Z,3875
2016-05-11T11:27:13.773Z,3980
2016-05-11T11:28:14.886Z,3745
2016-05-11T11:29:14.295Z,3720
2016-05-11T11:30:15.813Z,3770
2016-05-11T11:31:13.316Z,3775
2016-05-11T11:32:13.334Z,3560
2016-05-11T11:33:13.353Z,3805
2016-05-11T11:34:14.214Z,3885
2016-05-11T11:35:13.545Z,1040
2016-05-11T11:36:13.907Z,1100
2016-05-11T11:37:13.769Z,3930
2016-05-11T11:38:14.147Z,3975
2016-05-11T11:39:13.993Z,3990
2016-05-11T11:40:14.355Z,4000
2016-05-11T11:41:15.530Z,3985
2016-05-11T11:42:13.971Z,4020
2016-05-11T11:43:14.020Z,3980
2016-05-11T11:44:14.710Z,3915
2016-05-11T11:45:16.401Z,3855
2016-05-11T11:46:14.529Z,3900
2016-05-11T11:47:14.406Z,3870
2016-05-11T11:48:15.049Z,3855
2016-05-11T11:49:14.458Z,3865
2016-05-11T11:50:15.054Z,3845
2016-05-11T11:51:14.509Z,3845
2016-05-11T11:52:14.560Z,3850
2016-05-11T11:53:14.578Z,3825
2016-05-11T11:54:14.596Z,3885
2016-05-11T11:55:15.020Z,3835
2016-05-11T11:56:14.837Z,3815
2016-05-11T11:57:14.901Z,3765
2016-05-11T11:58:15.591Z,3765
2016-05-11T11:59:15.470Z,3815
2016-05-11T12:00:17.207Z,3810
2016-05-11T12:01:16.459Z,3810
2016-05-11T12:02:16.774Z,3815
2016-05-11T12:03:18.574Z,3750
2016-05-11T12:04:18.498Z,3725
2016-05-11T12:05:16.563Z,3750
2016-05-11T12:06:15.769Z,3315
2016-05-11T12:07:15.569Z,3710
2016-05-11T12:08:15.619Z,3730
2016-05-11T12:09:15.871Z,3705
2016-05-11T12:10:15.874Z,3715
2016-05-11T12:11:15.783Z,3680
2016-05-11T12:12:15.786Z,3640
2016-05-11T12:13:15.944Z,3650
2016-05-11T12:14:16.760Z,3745
2016-05-11T12:15:16.215Z,3730
2016-05-11T12:16:16.655Z,3730
2016-05-11T12:17:15.971Z,3675
2016-05-11T12:18:16.254Z,3580
2016-05-11T12:19:16.742Z,3495
2016-05-11T12:20:16.854Z,3410
2016-05-11T12:21:17.794Z,3370
2016-05-11T12:22:17.562Z,3345
2016-05-11T12:23:16.315Z,3380
2016-05-11T12:24:16.224Z,3390
2016-05-11T12:25:16.992Z,3425
2016-05-11T12:26:16.651Z,3415
2016-05-11T12:27:16.748Z,3475
2016-05-11T12:28:17.735Z,3545
2016-05-11T12:29:16.722Z,3570
2016-05-11T12:30:20.740Z,3530
2016-05-11T12:31:19.727Z,3585
2016-05-11T12:32:18.823Z,3570
2016-05-11T12:33:19.998Z,3560
2016-05-11T12:34:19.594Z,3510
2016-05-11T12:35:17.425Z,3405
2016-05-11T12:36:18.444Z,3280
2016-05-11T12:37:17.362Z,3260
2016-05-11T12:38:18.709Z,3265
2016-05-11T12:39:19.103Z,3170
2016-05-11T12:40:18.091Z,3220
2016-05-11T12:41:17.641Z,3155
2016-05-11T12:42:18.830Z,3170
2016-05-11T12:43:18.412Z,3235
2016-05-11T12:44:18.259Z,3215
2016-05-11T12:45:18.029Z,3210
2016-05-11T12:46:18.690Z,3210
2016-05-11T12:47:18.344Z,3210
2016-05-11T12:48:18.384Z,3200
2016-05-11T12:49:18.471Z,3215
2016-05-11T12:50:18.558Z,3215
2016-05-11T12:51:18.536Z,3190
2016-05-11T12:52:18.870Z,3150
2016-05-11T12:53:18.719Z,3110
2016-05-11T12:54:18.754Z,3055
2016-05-11T12:55:18.915Z,3075
2016-05-11T12:56:18.858Z,3065
2016-05-11T12:57:18.908Z,3085
2016-05-11T12:58:20.287Z,3100
2016-05-11T12:59:19.119Z,3055
2016-05-11T13:00:19.123Z,3075
2016-05-11T13:01:19.391Z,3070
2016-05-11T13:02:19.066Z,2985
2016-05-11T13:03:19.335Z,2950
2016-05-11T13:04:19.213Z,2870
2016-05-11T13:05:19.263Z,2835
2016-05-11T13:06:19.500Z,2715
2016-05-11T13:07:19.613Z,2680
2016-05-11T13:08:19.599Z,2605
2016-05-11T13:09:19.868Z,2595
2016-05-11T13:10:20.449Z,2595
2016-05-11T13:11:19.826Z,2610
2016-05-11T13:12:19.563Z,2675
2016-05-11T13:13:20.175Z,2620
2016-05-11T13:14:19.960Z,2610
2016-05-11T13:15:20.134Z,2565
2016-05-11T13:16:20.324Z,2500
2016-05-11T13:17:20.108Z,2450
2016-05-11T13:18:20.188Z,2485
2016-05-11T13:19:20.348Z,2585
2016-05-11T13:20:20.194Z,2600
2016-05-11T13:21:20.400Z,2595
2016-05-11T13:22:21.169Z,2615
2016-05-11T13:23:20.406Z,2675
2016-05-11T13:24:20.564Z,2705
2016-05-11T13:25:20.677Z,2660
2016-05-11T13:26:20.710Z,2600
2016-05-11T13:27:20.775Z,2565
2016-05-11T13:28:20.685Z,2485
2016-05-11T13:29:20.875Z,2520
2016-05-11T13:30:20.815Z,2600
2016-05-11T13:31:21.678Z,2640
2016-05-11T13:32:20.821Z,2635
2016-05-11T13:33:22.183Z,2580
2016-05-11T13:34:21.529Z,2695
2016-05-11T13:35:20.984Z,2785
2016-05-11T13:36:21.222Z,2780
2016-05-11T13:37:21.411Z,2700
2016-05-11T13:38:21.978Z,2695
2016-05-11T13:39:21.714Z,2695
2016-05-11T13:40:21.655Z,2575
2016-05-11T13:41:22.063Z,2605
2016-05-11T13:42:21.660Z,2625
2016-05-11T13:43:21.600Z,2665
2016-05-11T13:44:21.619Z,2615
2016-05-11T13:45:21.825Z,2570
2016-05-11T13:46:22.530Z,2485
2016-05-11T13:47:23.408Z,2520
2016-05-11T13:48:22.426Z,2485
2016-05-11T13:49:22.210Z,2440
2016-05-11T13:50:22.010Z,2320
2016-05-11T13:51:22.966Z,2305
2016-05-11T13:52:22.530Z,2280
2016-05-11T13:53:22.361Z,2000
2016-05-11T13:54:22.535Z,2210
2016-05-11T13:55:23.273Z,2005
2016-05-11T13:56:22.588Z,2215